Glenbrook, Connecticut
Current Conditions -  °F | °C
As of 1:56 PM on Monday 22 Dec 2014 (Local Time) from KHPN Reporting Station
Broken Clouds Broken Clouds  
Wind Chill: 37°   Ceiling: 1500
Heat Index: 42°   Visibility: 10mi
Dew Point: 35°   Wind: 8mph
Humidity: 76%   Direction: 110°ESE
Pressure: 30.22"   Gusts: NA
Location:  41.0697°N, 73.522°W
Report Text: KHPN 221856Z 11007KT 10SM BKN015 BKN020 06/02 A3022 RMK AO2 SLP239 T00560017
Loading
Personal Weather Stations






























Interactive Weather Map New forecast layout! Learn more

10-Day Weather Forecast

Advertisements
Track Severe Weather on mobile